createdAt,value
2019-03-24T00:01:26.407Z,10.90
2019-03-24T00:03:54.994Z,10.90
2019-03-24T00:06:23.536Z,10.90
2019-03-24T00:08:52.033Z,10.90
2019-03-24T00:11:20.479Z,10.90
2019-03-24T00:13:48.923Z,10.90
2019-03-24T00:16:17.381Z,10.90
2019-03-24T00:18:45.911Z,10.90
2019-03-24T00:21:14.347Z,10.80
2019-03-24T00:23:42.817Z,10.80
2019-03-24T00:26:11.326Z,10.80
2019-03-24T00:28:39.791Z,10.90
2019-03-24T00:31:08.307Z,10.90
2019-03-24T00:33:36.778Z,10.90
2019-03-24T00:36:05.341Z,10.80
2019-03-24T00:38:33.811Z,10.80
2019-03-24T00:41:02.313Z,10.70
2019-03-24T00:43:30.763Z,10.70
2019-03-24T00:45:59.264Z,10.70
2019-03-24T00:48:27.722Z,10.70
2019-03-24T00:50:56.372Z,10.70
2019-03-24T00:53:24.911Z,10.70
2019-03-24T00:55:53.374Z,10.60
2019-03-24T00:58:21.827Z,10.60
2019-03-24T01:00:51.975Z,10.60
2019-03-24T01:03:20.510Z,10.70
2019-03-24T01:05:48.945Z,10.70
2019-03-24T01:08:17.543Z,10.70
2019-03-24T01:10:46.389Z,10.60
2019-03-24T01:13:15.250Z,10.50
2019-03-24T01:15:47.877Z,10.50
2019-03-24T01:18:14.075Z,10.40
2019-03-24T01:20:42.556Z,10.40
2019-03-24T01:23:11.082Z,10.40
2019-03-24T01:25:39.528Z,10.30
2019-03-24T01:28:08.031Z,10.30
2019-03-24T01:30:36.566Z,10.20
2019-03-24T01:33:05.303Z,10.20
2019-03-24T01:35:33.784Z,10.10
2019-03-24T01:38:02.351Z,10.20
2019-03-24T01:40:30.817Z,10.20
2019-03-24T01:42:59.410Z,10.30
2019-03-24T01:45:27.859Z,10.30
2019-03-24T01:47:56.283Z,10.30
2019-03-24T01:50:24.742Z,10.20
2019-03-24T01:52:53.176Z,10.20
2019-03-24T01:55:21.649Z,10.20
2019-03-24T01:57:50.092Z,10.20
2019-03-24T02:00:18.813Z,10.20
2019-03-24T02:02:47.392Z,10.20
2019-03-24T02:05:15.861Z,10.10
2019-03-24T02:07:44.368Z,10.10
2019-03-24T02:10:13.576Z,10.10
2019-03-24T02:12:42.015Z,9.90
2019-03-24T02:15:11.092Z,10.00
2019-03-24T02:17:39.612Z,10.00
2019-03-24T02:20:08.254Z,10.00
2019-03-24T02:22:36.674Z,9.90
2019-03-24T02:25:07.351Z,9.90
2019-03-24T02:27:35.804Z,9.90
2019-03-24T02:30:05.979Z,9.90
2019-03-24T02:32:34.421Z,9.80
2019-03-24T02:35:03.008Z,9.80
2019-03-24T02:37:31.463Z,9.80
2019-03-24T02:39:59.903Z,9.90
2019-03-24T02:42:28.466Z,10.00
2019-03-24T02:44:56.865Z,9.90
2019-03-24T02:47:25.313Z,10.00
2019-03-24T02:49:53.744Z,10.00
2019-03-24T02:52:22.221Z,10.00
2019-03-24T02:54:50.708Z,9.90
2019-03-24T02:57:19.176Z,9.80
2019-03-24T02:59:47.607Z,9.80
2019-03-24T03:02:16.050Z,9.70
2019-03-24T03:04:44.483Z,9.70
2019-03-24T03:07:12.934Z,9.70
2019-03-24T03:09:41.355Z,9.70
2019-03-24T03:12:09.795Z,9.70
2019-03-24T03:14:38.239Z,9.70
2019-03-24T03:17:06.697Z,9.70
2019-03-24T03:19:35.135Z,9.60
2019-03-24T03:22:03.659Z,9.70
2019-03-24T03:24:32.093Z,9.70
2019-03-24T03:27:00.524Z,9.70
2019-03-24T03:29:28.975Z,9.80
2019-03-24T03:31:57.400Z,9.80
2019-03-24T03:34:25.945Z,9.70
2019-03-24T03:36:54.477Z,9.60
2019-03-24T03:39:22.953Z,9.70
2019-03-24T03:41:51.376Z,9.70
2019-03-24T03:44:19.905Z,9.60
2019-03-24T03:46:52.983Z,9.70
2019-03-24T03:49:18.509Z,9.70
2019-03-24T03:51:46.940Z,9.70
2019-03-24T03:54:15.389Z,9.60
2019-03-24T03:56:43.817Z,9.50
2019-03-24T03:59:12.297Z,9.50
2019-03-24T04:01:41.332Z,9.50
2019-03-24T04:04:09.844Z,9.50
2019-03-24T04:06:38.284Z,9.50
2019-03-24T04:09:07.012Z,9.40
2019-03-24T04:11:35.511Z,9.40
2019-03-24T04:14:04.129Z,9.40
2019-03-24T04:16:32.542Z,9.50
2019-03-24T04:19:00.992Z,9.50
2019-03-24T04:21:29.426Z,9.40
2019-03-24T04:23:57.876Z,9.40
2019-03-24T04:26:26.311Z,9.40
2019-03-24T04:28:54.828Z,9.40
2019-03-24T04:31:23.287Z,9.40
2019-03-24T04:33:51.702Z,9.40
2019-03-24T04:36:20.155Z,9.40
2019-03-24T04:38:48.596Z,9.40
2019-03-24T04:41:17.131Z,9.30
2019-03-24T04:43:45.564Z,9.40
2019-03-24T04:46:14.019Z,9.30
2019-03-24T04:48:42.459Z,9.40
2019-03-24T04:51:10.902Z,9.30
2019-03-24T04:53:39.338Z,9.30
2019-03-24T04:56:07.803Z,9.30
2019-03-24T04:58:36.231Z,9.30
2019-03-24T05:01:04.824Z,9.30
2019-03-24T05:03:33.251Z,9.30
2019-03-24T05:06:01.783Z,9.40
2019-03-24T05:08:30.579Z,9.40
2019-03-24T05:10:59.027Z,9.30
2019-03-24T05:13:27.494Z,9.30
2019-03-24T05:15:55.950Z,9.30
2019-03-24T05:18:24.371Z,9.30
2019-03-24T05:20:52.839Z,9.20
2019-03-24T05:23:21.259Z,9.20
2019-03-24T05:25:49.691Z,9.20
2019-03-24T05:28:18.165Z,9.20
2019-03-24T05:30:46.590Z,9.20
2019-03-24T05:33:15.022Z,9.10
2019-03-24T05:35:43.483Z,9.20
2019-03-24T05:38:11.940Z,9.20
2019-03-24T05:40:40.427Z,9.10
2019-03-24T05:43:08.894Z,9.20
2019-03-24T05:45:37.331Z,9.20
2019-03-24T05:48:05.780Z,9.20
2019-03-24T05:50:34.211Z,9.20
2019-03-24T05:53:02.741Z,9.20
2019-03-24T05:55:31.176Z,9.20
2019-03-24T05:57:59.671Z,9.10
2019-03-24T06:00:28.186Z,9.10
2019-03-24T06:02:57.396Z,9.20
2019-03-24T06:05:26.001Z,9.10
2019-03-24T06:07:54.535Z,9.20
2019-03-24T06:10:22.958Z,9.10
2019-03-24T06:12:51.402Z,9.20
2019-03-24T06:15:19.882Z,9.10
2019-03-24T06:17:48.313Z,9.00
2019-03-24T06:20:16.778Z,9.10
2019-03-24T06:22:45.193Z,9.10
2019-03-24T06:25:13.748Z,9.00
2019-03-24T06:27:42.391Z,9.10
2019-03-24T06:30:11.027Z,9.10
2019-03-24T06:32:39.487Z,9.20
2019-03-24T06:35:08.178Z,9.20
2019-03-24T06:37:36.660Z,9.30
2019-03-24T06:40:06.934Z,9.30
2019-03-24T06:42:35.440Z,9.20
2019-03-24T06:45:06.214Z,9.30
2019-03-24T06:47:34.676Z,9.40
2019-03-24T06:50:03.763Z,9.40
2019-03-24T06:52:32.262Z,9.30
2019-03-24T06:55:00.802Z,9.20
2019-03-24T06:57:29.218Z,9.20
2019-03-24T06:59:57.716Z,9.20
2019-03-24T07:02:26.229Z,9.20
2019-03-24T07:04:56.953Z,9.30
2019-03-24T07:07:25.456Z,9.50
2019-03-24T07:09:53.887Z,9.60
2019-03-24T07:12:22.350Z,9.50
2019-03-24T07:14:50.779Z,9.50
2019-03-24T07:17:19.339Z,9.80
2019-03-24T07:19:47.762Z,9.90
2019-03-24T07:22:16.206Z,9.80
2019-03-24T07:24:44.659Z,9.80
2019-03-24T07:27:13.187Z,9.80
2019-03-24T07:29:41.654Z,9.90
2019-03-24T07:32:10.147Z,9.80
2019-03-24T07:34:38.652Z,9.90
2019-03-24T07:37:07.244Z,9.80
2019-03-24T07:39:35.679Z,10.00
2019-03-24T07:42:05.599Z,10.00
2019-03-24T07:44:34.211Z,10.00
2019-03-24T07:47:05.839Z,10.10
2019-03-24T07:49:34.259Z,10.10
2019-03-24T07:52:02.799Z,10.10
2019-03-24T07:54:31.372Z,10.10
2019-03-24T07:57:00.227Z,10.10
2019-03-24T07:59:28.750Z,10.20
2019-03-24T08:01:57.194Z,10.30
2019-03-24T08:04:25.658Z,10.30
2019-03-24T08:06:54.100Z,10.50
2019-03-24T08:09:22.603Z,10.70
2019-03-24T08:11:51.137Z,10.60
2019-03-24T08:14:19.592Z,10.60
2019-03-24T08:16:48.044Z,10.60
2019-03-24T08:19:16.613Z,10.70
2019-03-24T08:21:45.159Z,10.60
2019-03-24T08:24:13.638Z,10.60
2019-03-24T08:26:42.069Z,10.50
2019-03-24T08:29:10.556Z,10.70
2019-03-24T08:31:38.979Z,10.70
2019-03-24T08:34:07.423Z,10.90
2019-03-24T08:36:35.908Z,10.90
2019-03-24T08:39:06.238Z,10.90
2019-03-24T08:41:34.667Z,10.90
2019-03-24T08:44:03.259Z,10.90
2019-03-24T08:46:31.724Z,11.10
2019-03-24T08:49:00.176Z,11.10
2019-03-24T08:51:28.607Z,11.50
2019-03-24T08:53:57.143Z,11.50
2019-03-24T08:56:25.657Z,11.60
2019-03-24T08:58:54.099Z,11.80
2019-03-24T09:01:22.591Z,11.90
2019-03-24T09:03:51.031Z,12.00
2019-03-24T09:06:19.503Z,12.00
2019-03-24T09:08:48.976Z,11.90
2019-03-24T09:11:17.665Z,11.90
2019-03-24T09:13:46.123Z,11.80
2019-03-24T09:16:14.571Z,11.80
2019-03-24T09:18:51.976Z,11.70
2019-03-24T09:21:13.268Z,11.70
2019-03-24T09:23:41.728Z,11.90
2019-03-24T09:26:10.330Z,11.90
2019-03-24T09:28:38.912Z,11.80
2019-03-24T09:31:07.364Z,11.70
2019-03-24T09:33:35.799Z,11.80
2019-03-24T09:36:04.336Z,12.70
2019-03-24T09:38:32.772Z,11.70
2019-03-24T09:41:01.288Z,11.50
2019-03-24T09:43:29.736Z,11.70
2019-03-24T09:45:58.195Z,11.60
2019-03-24T09:48:26.693Z,12.00
2019-03-24T09:50:55.247Z,12.10
2019-03-24T09:53:23.696Z,12.20
2019-03-24T09:55:52.159Z,12.10
2019-03-24T09:58:20.650Z,12.10
2019-03-24T10:00:49.147Z,12.00
2019-03-24T10:03:17.640Z,12.30
2019-03-24T10:05:46.063Z,12.30
2019-03-24T10:08:14.603Z,12.10
2019-03-24T10:10:43.059Z,12.50
2019-03-24T10:13:11.557Z,12.70
2019-03-24T10:15:40.063Z,12.50
2019-03-24T10:18:08.560Z,12.40
2019-03-24T10:20:37.060Z,12.50
2019-03-24T10:23:05.600Z,12.80
2019-03-24T10:25:34.040Z,12.90
2019-03-24T10:28:02.656Z,12.80
2019-03-24T10:30:31.155Z,12.90
2019-03-24T10:32:59.619Z,13.10
2019-03-24T10:35:28.123Z,13.30
2019-03-24T10:37:56.590Z,13.50
2019-03-24T10:40:28.997Z,13.50
2019-03-24T10:42:55.375Z,13.20
2019-03-24T10:45:23.971Z,13.40
2019-03-24T10:47:52.495Z,13.30
2019-03-24T10:50:21.083Z,13.40
2019-03-24T10:52:49.683Z,13.30
2019-03-24T10:55:18.129Z,13.50
2019-03-24T10:57:46.592Z,13.30
2019-03-24T11:00:18.122Z,13.60
2019-03-24T11:02:46.667Z,13.50
2019-03-24T11:05:15.283Z,13.50
2019-03-24T11:07:43.719Z,13.30
2019-03-24T11:10:13.222Z,13.20
2019-03-24T11:12:41.727Z,13.60
2019-03-24T11:15:11.058Z,13.50
2019-03-24T11:17:39.569Z,13.60
2019-03-24T11:20:08.602Z,13.20
2019-03-24T11:22:37.111Z,13.10
2019-03-24T11:25:08.321Z,13.10
2019-03-24T11:27:36.914Z,13.00
2019-03-24T11:30:08.784Z,13.00
2019-03-24T11:32:37.662Z,12.90
2019-03-24T11:35:06.958Z,12.90
2019-03-24T11:37:35.403Z,12.80
2019-03-24T11:40:06.291Z,13.00
2019-03-24T11:42:34.759Z,13.20
2019-03-24T11:45:04.875Z,13.10
2019-03-24T11:47:33.388Z,12.90
2019-03-24T11:50:01.915Z,13.00
2019-03-24T11:52:30.363Z,13.20
2019-03-24T11:54:58.845Z,13.40
2019-03-24T11:57:27.348Z,13.40
2019-03-24T11:59:55.781Z,13.40
2019-03-24T12:02:24.244Z,13.60
2019-03-24T12:04:52.701Z,13.20
2019-03-24T12:07:21.288Z,13.40
2019-03-24T12:09:49.738Z,13.60
2019-03-24T12:12:18.475Z,13.50
2019-03-24T12:14:47.046Z,13.70
2019-03-24T12:17:15.593Z,13.90
2019-03-24T12:19:44.025Z,14.00
2019-03-24T12:22:12.493Z,14.20
2019-03-24T12:24:41.033Z,13.90
2019-03-24T12:27:09.499Z,14.00
2019-03-24T12:29:37.939Z,14.00
2019-03-24T12:32:06.640Z,14.10
2019-03-24T12:34:35.092Z,13.90
2019-03-24T12:37:03.568Z,13.80
2019-03-24T12:39:31.987Z,13.90
2019-03-24T12:42:00.509Z,13.60
2019-03-24T12:44:28.982Z,13.70
2019-03-24T12:46:57.416Z,13.80
2019-03-24T12:49:25.901Z,13.70
2019-03-24T12:51:54.336Z,13.50
2019-03-24T12:54:24.508Z,13.30
2019-03-24T12:56:53.159Z,13.30
2019-03-24T12:59:21.588Z,13.40
2019-03-24T13:01:50.031Z,13.40
2019-03-24T13:04:18.495Z,13.60
2019-03-24T13:06:46.931Z,13.90
2019-03-24T13:09:15.491Z,14.00
2019-03-24T13:11:44.008Z,13.80
2019-03-24T13:14:12.532Z,13.50
2019-03-24T13:16:41.060Z,13.40
2019-03-24T13:19:09.618Z,13.30
2019-03-24T13:21:38.131Z,13.20
2019-03-24T13:24:06.575Z,13.20
2019-03-24T13:26:35.138Z,13.10
2019-03-24T13:29:03.719Z,13.30
2019-03-24T13:31:32.156Z,13.50
2019-03-24T13:34:00.612Z,13.70
2019-03-24T13:36:29.109Z,13.70
2019-03-24T13:38:57.618Z,13.40
2019-03-24T13:41:26.071Z,13.40
2019-03-24T13:43:54.537Z,13.60
2019-03-24T13:46:23.066Z,13.70
2019-03-24T13:48:51.584Z,13.70
2019-03-24T13:51:20.205Z,13.80
2019-03-24T13:53:48.663Z,13.70
2019-03-24T13:56:17.130Z,13.90
2019-03-24T13:58:45.579Z,13.80
2019-03-24T14:01:14.856Z,14.10
2019-03-24T14:03:43.303Z,14.30
2019-03-24T14:06:11.815Z,14.30
2019-03-24T14:08:40.269Z,14.20
2019-03-24T14:11:08.814Z,14.20
2019-03-24T14:13:37.544Z,13.90
2019-03-24T14:16:06.135Z,13.60
2019-03-24T14:18:34.582Z,13.50
2019-03-24T14:21:03.163Z,13.10
2019-03-24T14:23:31.624Z,13.20
2019-03-24T14:26:00.081Z,13.30
2019-03-24T14:28:28.533Z,13.20
2019-03-24T14:30:57.117Z,13.20
2019-03-24T14:33:25.542Z,13.00
2019-03-24T14:35:54.114Z,12.90
2019-03-24T14:38:22.583Z,12.90
2019-03-24T14:40:51.059Z,12.70
2019-03-24T14:43:19.491Z,12.60
2019-03-24T14:45:54.215Z,12.60
2019-03-24T14:48:22.677Z,12.60
2019-03-24T14:50:54.687Z,12.50
2019-03-24T14:53:21.398Z,12.40
2019-03-24T14:55:49.928Z,12.40
2019-03-24T14:58:18.349Z,12.30
2019-03-24T15:00:47.172Z,12.20
2019-03-24T15:03:15.678Z,12.10
2019-03-24T15:05:44.228Z,12.20
2019-03-24T15:08:12.844Z,12.30
2019-03-24T15:10:41.289Z,12.30
2019-03-24T15:13:09.820Z,12.20
2019-03-24T15:15:38.319Z,12.20
2019-03-24T15:18:06.783Z,12.20
2019-03-24T15:20:35.230Z,12.20
2019-03-24T15:23:03.757Z,12.20
2019-03-24T15:25:32.243Z,12.20
2019-03-24T15:28:00.764Z,12.10
2019-03-24T15:30:29.301Z,12.00
2019-03-24T15:32:57.815Z,11.90
2019-03-24T15:35:26.278Z,11.90
2019-03-24T15:38:07.775Z,12.00
2019-03-24T15:40:25.274Z,11.90
2019-03-24T15:42:53.727Z,11.90
2019-03-24T15:45:22.323Z,11.90
2019-03-24T15:47:50.780Z,11.90
2019-03-24T15:50:19.225Z,11.90
2019-03-24T15:52:47.752Z,11.80
2019-03-24T15:55:16.202Z,11.80
2019-03-24T15:57:44.659Z,11.80
2019-03-24T16:00:14.436Z,11.90
2019-03-24T16:02:42.852Z,11.80
2019-03-24T16:05:11.473Z,11.70
2019-03-24T16:07:39.895Z,11.70
2019-03-24T16:10:08.544Z,11.70
2019-03-24T16:12:37.071Z,11.70
2019-03-24T16:15:07.499Z,11.70
2019-03-24T16:17:36.018Z,11.60
2019-03-24T16:20:06.640Z,11.60
2019-03-24T16:22:35.060Z,11.50
2019-03-24T16:25:04.366Z,11.50
2019-03-24T16:27:35.040Z,11.50
2019-03-24T16:30:03.687Z,11.40
2019-03-24T16:32:32.136Z,11.40
2019-03-24T16:35:00.598Z,11.40
2019-03-24T16:37:29.055Z,11.40
2019-03-24T16:39:57.584Z,11.30
2019-03-24T16:42:26.041Z,11.20
2019-03-24T16:44:54.494Z,11.20
2019-03-24T16:47:22.919Z,11.20
2019-03-24T16:49:51.400Z,11.10
2019-03-24T16:52:19.937Z,11.10
2019-03-24T16:54:48.399Z,11.10
2019-03-24T16:57:16.832Z,11.10
2019-03-24T16:59:45.278Z,11.10
2019-03-24T17:02:13.812Z,11.00
2019-03-24T17:04:42.244Z,10.90
2019-03-24T17:07:10.761Z,10.80
2019-03-24T17:09:39.188Z,10.80
2019-03-24T17:12:07.786Z,10.70
2019-03-24T17:14:36.283Z,10.70
2019-03-24T17:17:05.156Z,10.60
2019-03-24T17:19:33.575Z,10.60
2019-03-24T17:22:02.031Z,10.60
2019-03-24T17:24:30.469Z,10.60
2019-03-24T17:26:58.931Z,10.50
2019-03-24T17:29:27.364Z,10.40
2019-03-24T17:31:55.920Z,10.40
2019-03-24T17:34:24.423Z,10.30
2019-03-24T17:36:52.875Z,10.20
2019-03-24T17:41:49.487Z,10.10
2019-03-24T17:46:46.058Z,10.10
2019-03-24T17:49:14.550Z,10.10
2019-03-24T17:51:43.016Z,10.00
2019-03-24T17:54:11.563Z,10.00
2019-03-24T17:56:40.132Z,9.80
2019-03-24T17:59:08.600Z,9.80
2019-03-24T18:01:37.123Z,9.80
2019-03-24T18:04:05.566Z,9.70
2019-03-24T18:06:34.015Z,9.70
2019-03-24T18:09:02.816Z,9.70
2019-03-24T18:11:31.288Z,9.60
2019-03-24T18:13:59.858Z,9.60
2019-03-24T18:16:28.328Z,9.50
2019-03-24T18:18:56.817Z,9.40
2019-03-24T18:21:25.264Z,9.30
2019-03-24T18:23:53.859Z,9.30
2019-03-24T18:26:22.860Z,9.30
2019-03-24T18:28:51.303Z,9.30
2019-03-24T18:31:19.744Z,9.20
2019-03-24T18:33:48.224Z,9.10
2019-03-24T18:36:16.723Z,9.00
2019-03-24T18:38:45.253Z,9.00
2019-03-24T18:41:13.711Z,9.00
2019-03-24T18:43:42.362Z,8.90
2019-03-24T18:46:10.785Z,8.80
2019-03-24T18:48:39.351Z,8.80
2019-03-24T18:51:07.814Z,8.80
2019-03-24T18:53:36.522Z,8.70
2019-03-24T18:56:05.100Z,8.70
2019-03-24T18:58:33.582Z,8.70
2019-03-24T19:01:02.164Z,8.70
2019-03-24T19:03:30.649Z,8.70
2019-03-24T19:05:59.162Z,8.70
2019-03-24T19:08:27.571Z,8.60
2019-03-24T19:10:56.249Z,8.60
2019-03-24T19:13:24.748Z,8.60
2019-03-24T19:15:53.564Z,8.50
2019-03-24T19:18:22.003Z,8.50
2019-03-24T19:20:50.559Z,8.50
2019-03-24T19:23:19.051Z,8.50
2019-03-24T19:25:47.523Z,8.50
2019-03-24T19:28:16.019Z,8.50
2019-03-24T19:30:44.611Z,8.50
2019-03-24T19:33:13.057Z,8.40
2019-03-24T19:35:41.675Z,8.30
2019-03-24T19:38:10.206Z,8.30
2019-03-24T19:40:38.778Z,8.30
2019-03-24T19:43:07.199Z,8.30
2019-03-24T19:45:35.790Z,8.30
2019-03-24T19:48:04.606Z,8.30
2019-03-24T19:50:33.034Z,8.30
2019-03-24T19:53:01.489Z,8.30
2019-03-24T19:55:29.918Z,8.30
2019-03-24T19:58:02.243Z,8.30
2019-03-24T20:00:30.699Z,8.30
2019-03-24T20:02:59.267Z,8.20
2019-03-24T20:07:56.137Z,8.20
2019-03-24T20:10:24.639Z,8.10
2019-03-24T20:12:53.168Z,8.10
2019-03-24T20:15:21.607Z,8.20
2019-03-24T20:17:50.161Z,8.10
2019-03-24T20:20:18.808Z,8.10
2019-03-24T20:22:56.025Z,8.10
2019-03-24T20:25:17.545Z,8.00
2019-03-24T20:27:46.034Z,8.00
2019-03-24T20:30:15.370Z,8.00
2019-03-24T20:32:43.903Z,7.90
2019-03-24T20:35:12.666Z,7.90
2019-03-24T20:37:41.150Z,7.90
2019-03-24T20:40:10.024Z,7.90
2019-03-24T20:42:38.493Z,7.80
2019-03-24T20:45:08.868Z,7.70
2019-03-24T20:47:37.353Z,7.70
2019-03-24T20:50:09.224Z,7.70
2019-03-24T20:52:37.690Z,7.70
2019-03-24T20:55:07.931Z,7.60
2019-03-24T20:57:36.400Z,7.60
2019-03-24T21:00:07.403Z,7.60
2019-03-24T21:02:36.006Z,7.70
2019-03-24T21:05:05.922Z,7.60
2019-03-24T21:07:34.449Z,7.60
2019-03-24T21:10:03.203Z,7.60
2019-03-24T21:12:31.626Z,7.60
2019-03-24T21:15:00.339Z,7.60
2019-03-24T21:17:28.868Z,7.60
2019-03-24T21:19:58.280Z,7.60
2019-03-24T21:22:26.740Z,7.60
2019-03-24T21:24:55.325Z,7.60
2019-03-24T21:27:23.762Z,7.60
2019-03-24T21:29:52.200Z,7.60
2019-03-24T21:32:20.647Z,7.60
2019-03-24T21:34:49.088Z,7.50
2019-03-24T21:37:17.543Z,7.50
2019-03-24T21:39:46.002Z,7.50
2019-03-24T21:42:14.522Z,7.40
2019-03-24T21:44:43.121Z,7.40
2019-03-24T21:47:11.579Z,7.30
2019-03-24T21:49:40.007Z,7.30
2019-03-24T21:52:08.576Z,7.30
2019-03-24T21:54:37.040Z,7.20
2019-03-24T21:57:05.551Z,7.10
2019-03-24T21:59:34.103Z,7.10
2019-03-24T22:02:02.968Z,7.10
2019-03-24T22:04:31.461Z,7.10
2019-03-24T22:06:59.911Z,7.10
2019-03-24T22:11:56.607Z,7.00
2019-03-24T22:14:25.036Z,6.90
2019-03-24T22:16:53.503Z,7.00
2019-03-24T22:19:22.015Z,6.90
2019-03-24T22:21:50.442Z,6.90
2019-03-24T22:24:18.899Z,6.80
2019-03-24T22:26:47.404Z,6.70
2019-03-24T22:29:15.896Z,6.80
2019-03-24T22:34:12.502Z,6.70
2019-03-24T22:36:40.956Z,6.70
2019-03-24T22:39:09.474Z,6.70
2019-03-24T22:41:37.899Z,6.60
2019-03-24T22:46:34.463Z,6.50
2019-03-24T22:49:02.899Z,6.40
2019-03-24T22:51:31.351Z,6.40
2019-03-24T22:54:03.494Z,6.40
2019-03-24T22:56:29.955Z,6.40
2019-03-24T22:58:58.444Z,6.30
2019-03-24T23:01:27.060Z,6.30
2019-03-24T23:03:55.682Z,6.20
2019-03-24T23:06:24.184Z,6.20
2019-03-24T23:08:52.619Z,6.20
2019-03-24T23:11:21.049Z,6.10
2019-03-24T23:13:49.504Z,6.10
2019-03-24T23:16:18.011Z,6.10
2019-03-24T23:18:46.466Z,6.10
2019-03-24T23:21:14.936Z,6.10
2019-03-24T23:23:43.356Z,6.10
2019-03-24T23:26:11.804Z,6.10
2019-03-24T23:28:40.308Z,6.00
2019-03-24T23:31:08.941Z,6.00
2019-03-24T23:33:37.369Z,5.90
2019-03-24T23:36:05.864Z,5.90
2019-03-24T23:38:34.282Z,5.90
2019-03-24T23:41:02.763Z,5.90
2019-03-24T23:43:31.273Z,5.80
2019-03-24T23:45:59.798Z,5.90
2019-03-24T23:48:29.196Z,5.80
2019-03-24T23:50:57.647Z,5.80
2019-03-24T23:53:26.071Z,5.90
2019-03-24T23:55:54.528Z,5.90
2019-03-24T23:58:22.954Z,5.90
